Time;durP1;ratioP1;P1;durP2;ratioP2;P2;SDS_P1;SDS_P2;PMS_P1;PMS_P2;Temp;Humidity;BMP_temperature;BMP_pressure;BME280_temperature;BME280_humidity;BME280_pressure;Samples;Min_cycle;Max_cycle;Signal;HPM_P1;HPM_P2
2021/12/02 05:01:22;;;;;;;5.37;3.60;;;5.90;99.90;;;;;;5537542;23;20550;-65
2021/12/02 05:03:49;;;;;;;3.27;2.00;;;5.90;99.90;;;;;;4983019;28;20461;-65
2021/12/02 05:06:16;;;;;;;2.67;1.80;;;5.90;99.90;;;;;;4993615;28;20455;-64
2021/12/02 05:08:43;;;;;;;2.97;0.90;;;5.90;99.90;;;;;;4993548;28;20454;-64
2021/12/02 05:11:09;;;;;;;6.23;1.10;;;5.80;99.90;;;;;;4993890;28;20475;-65
2021/12/02 05:13:36;;;;;;;2.37;1.00;;;5.90;99.90;;;;;;4995722;28;20451;-65
2021/12/02 05:16:04;;;;;;;1.40;1.20;;;5.70;99.90;;;;;;4995439;28;20447;-65
2021/12/02 05:18:32;;;;;;;1.93;1.13;;;5.70;99.90;;;;;;4995775;28;20479;-65
2021/12/02 05:20:59;;;;;;;1.13;0.63;;;5.60;99.90;;;;;;4994408;28;20471;-65
2021/12/02 05:23:26;;;;;;;1.80;1.20;;;5.60;99.90;;;;;;4989235;28;20457;-65
2021/12/02 05:25:53;;;;;;;1.37;0.90;;;5.60;99.90;;;;;;4993423;28;20462;-65
2021/12/02 05:28:20;;;;;;;1.17;0.90;;;5.60;99.90;;;;;;4990862;28;20453;-65
2021/12/02 05:30:47;;;;;;;1.37;0.70;;;5.60;99.90;;;;;;4988284;28;20474;-65
2021/12/02 05:33:14;;;;;;;1.20;1.10;;;5.60;99.90;;;;;;4982431;28;20451;-66
2021/12/02 05:35:43;;;;;;;0.70;0.70;;;5.60;99.90;;;;;;4984629;28;20459;-65
2021/12/02 05:38:10;;;;;;;3.10;1.70;;;5.60;99.90;;;;;;4984143;28;20479;-65
2021/12/02 05:40:36;;;;;;;1.70;0.60;;;5.60;99.90;;;;;;4984556;28;20470;-65
2021/12/02 05:43:03;;;;;;;0.80;0.80;;;5.60;99.90;;;;;;4985430;28;20438;-64
2021/12/02 05:45:31;;;;;;;1.63;0.63;;;5.60;99.90;;;;;;4990883;28;20459;-65
2021/12/02 05:47:58;;;;;;;1.90;0.70;;;5.60;99.90;;;;;;4987714;28;20458;-65
2021/12/02 05:50:25;;;;;;;2.87;0.80;;;5.60;99.90;;;;;;4984618;28;20462;-65
2021/12/02 05:52:53;;;;;;;0.77;0.70;;;5.60;99.90;;;;;;4982460;28;20452;-65
2021/12/02 05:55:20;;;;;;;1.00;0.83;;;5.70;99.90;;;;;;4980824;28;20451;-65
2021/12/02 05:57:47;;;;;;;0.70;0.50;;;5.90;99.90;;;;;;4983152;28;20833;-65
2021/12/02 06:00:15;;;;;;;1.50;0.83;;;6.00;99.90;;;;;;4983694;28;20451;-65
2021/12/02 06:02:42;;;;;;;2.00;0.53;;;6.20;99.90;;;;;;4985422;28;20444;-64
2021/12/02 06:05:09;;;;;;;0.50;0.50;;;6.20;99.90;;;;;;4982999;28;20452;-64
2021/12/02 06:07:37;;;;;;;0.70;0.70;;;6.40;99.90;;;;;;4982083;28;20451;-65
2021/12/02 06:10:06;;;;;;;0.60;0.60;;;6.40;99.90;;;;;;4980887;28;20447;-65
2021/12/02 06:12:33;;;;;;;0.70;0.70;;;6.30;99.90;;;;;;4983160;28;20537;-65
2021/12/02 06:15:00;;;;;;;0.53;0.53;;;6.40;99.90;;;;;;4981994;28;20494;-66
2021/12/02 06:17:27;;;;;;;0.83;0.50;;;6.40;99.90;;;;;;4981293;28;20459;-65
2021/12/02 06:19:53;;;;;;;0.60;0.60;;;6.30;99.90;;;;;;4983761;28;20455;-67
2021/12/02 06:22:20;;;;;;;1.00;0.60;;;6.20;99.90;;;;;;4979606;28;20479;-66
2021/12/02 06:24:54;;;;;;;0.50;0.50;;;6.20;99.90;;;;;;4983919;28;20466;-66
2021/12/02 06:27:22;;;;;;;0.50;0.50;;;6.20;99.90;;;;;;4981274;28;20431;-66
2021/12/02 06:29:49;;;;;;;0.50;0.50;;;6.10;99.90;;;;;;4982030;28;20455;-66
2021/12/02 06:32:16;;;;;;;0.80;0.80;;;6.00;99.90;;;;;;4993730;28;20475;-67
2021/12/02 06:34:42;;;;;;;1.00;1.00;;;6.00;99.90;;;;;;4985362;28;20821;-67
2021/12/02 06:37:10;;;;;;;0.70;0.70;;;6.00;99.90;;;;;;4998388;28;20474;-67
2021/12/02 06:39:37;;;;;;;0.93;0.70;;;6.00;99.90;;;;;;4997206;28;20475;-67
2021/12/02 06:42:04;;;;;;;0.70;0.70;;;6.00;99.90;;;;;;4998648;28;20459;-67
2021/12/02 06:44:32;;;;;;;0.73;0.73;;;5.90;99.90;;;;;;4998966;28;20461;-67
2021/12/02 06:46:59;;;;;;;1.07;0.70;;;5.80;99.90;;;;;;4998940;28;20439;-67
2021/12/02 06:49:27;;;;;;;0.97;0.97;;;5.80;99.90;;;;;;4997859;28;20444;-67
2021/12/02 06:51:56;;;;;;;0.93;0.60;;;5.70;99.90;;;;;;4998216;28;20462;-68
2021/12/02 06:54:22;;;;;;;1.17;0.90;;;5.70;99.90;;;;;;4998798;28;20447;-67
2021/12/02 06:56:49;;;;;;;0.70;0.70;;;5.60;99.90;;;;;;4995905;28;20463;-67
2021/12/02 06:59:16;;;;;;;0.90;0.90;;;5.60;99.90;;;;;;4997666;28;20475;-67
2021/12/02 07:01:45;;;;;;;0.60;0.60;;;5.70;99.90;;;;;;4997224;28;20478;-68
2021/12/02 07:04:12;;;;;;;0.80;0.80;;;5.70;99.90;;;;;;4989250;28;20530;-67
2021/12/02 07:06:40;;;;;;;1.00;0.70;;;5.70;99.90;;;;;;4986475;28;20926;-67
2021/12/02 07:09:07;;;;;;;1.30;1.20;;;5.80;99.90;;;;;;4989771;28;20487;-67
2021/12/02 07:11:34;;;;;;;1.17;0.73;;;5.70;99.90;;;;;;4984584;28;20475;-66
2021/12/02 07:14:04;;;;;;;0.97;0.97;;;5.70;99.90;;;;;;4985099;28;20532;-65
2021/12/02 07:16:32;;;;;;;1.23;0.80;;;5.70;99.90;;;;;;4989017;28;20437;-65
2021/12/02 07:19:03;;;;;;;1.20;0.53;;;5.70;99.90;;;;;;4988258;28;20486;-65
2021/12/02 07:21:30;;;;;;;0.50;0.50;;;5.70;99.90;;;;;;4982467;28;20481;-65
2021/12/02 07:23:57;;;;;;;2.57;0.90;;;5.70;99.90;;;;;;4982361;28;20460;-66
2021/12/02 07:26:24;;;;;;;0.70;0.70;;;5.80;99.90;;;;;;4980561;28;20952;-65
2021/12/02 07:28:51;;;;;;;0.70;0.70;;;5.80;99.90;;;;;;4981951;28;20443;-64
2021/12/02 07:31:20;;;;;;;2.23;0.80;;;5.90;99.90;;;;;;4980788;28;20566;-64
2021/12/02 07:33:48;;;;;;;0.77;0.77;;;5.90;99.90;;;;;;4978471;28;20466;-66
2021/12/02 07:36:18;;;;;;;0.70;0.70;;;5.90;99.90;;;;;;4980048;28;20906;-65
2021/12/02 07:38:45;;;;;;;0.80;0.80;;;6.10;99.90;;;;;;4989101;28;20455;-65
2021/12/02 07:41:12;;;;;;;0.53;0.53;;;6.30;99.90;;;;;;4998465;28;20459;-65
2021/12/02 07:43:40;;;;;;;1.00;0.63;;;6.70;99.90;;;;;;4998588;28;20451;-65
2021/12/02 07:46:07;;;;;;;1.27;0.80;;;6.90;99.90;;;;;;4995954;28;20439;-65
2021/12/02 07:48:34;;;;;;;0.60;0.60;;;7.00;99.90;;;;;;4981042;28;20452;-65
2021/12/02 07:51:03;;;;;;;0.53;0.53;;;6.90;99.90;;;;;;4980889;28;20482;-66
2021/12/02 07:53:32;;;;;;;0.73;0.73;;;6.80;99.90;;;;;;4981162;28;20432;-65
2021/12/02 07:56:04;;;;;;;0.70;0.70;;;6.70;99.90;;;;;;4981530;28;20462;-65
2021/12/02 07:58:31;;;;;;;1.27;0.60;;;6.60;99.90;;;;;;4980000;28;20494;-65
2021/12/02 08:01:00;;;;;;;1.10;0.60;;;6.50;99.90;;;;;;4980025;28;20487;-65
2021/12/02 08:03:27;;;;;;;0.80;0.70;;;6.40;99.90;;;;;;4980141;28;20486;-65
2021/12/02 08:05:54;;;;;;;0.60;0.60;;;6.40;99.90;;;;;;4978285;28;20845;-65
2021/12/02 08:08:21;;;;;;;2.47;1.10;;;6.40;99.90;;;;;;4980914;28;20451;-65
2021/12/02 08:10:49;;;;;;;1.23;0.70;;;6.40;99.90;;;;;;4981102;28;20475;-65
2021/12/02 08:13:16;;;;;;;0.80;0.80;;;6.30;99.90;;;;;;4978607;28;20453;-66
2021/12/02 08:15:44;;;;;;;0.60;0.60;;;6.30;99.90;;;;;;4978281;28;20458;-65
2021/12/02 08:18:10;;;;;;;1.30;0.87;;;6.20;99.90;;;;;;4979107;28;20462;-65
2021/12/02 08:20:38;;;;;;;3.00;0.70;;;6.20;99.90;;;;;;4980110;28;20474;-66
2021/12/02 08:23:05;;;;;;;1.00;0.70;;;6.30;99.90;;;;;;4980893;28;20934;-66
2021/12/02 08:25:32;;;;;;;1.63;1.30;;;6.20;99.90;;;;;;4978780;28;20813;-66
2021/12/02 08:28:01;;;;;;;0.70;0.70;;;6.30;99.90;;;;;;4978274;28;20808;-65
2021/12/02 08:30:30;;;;;;;0.93;0.83;;;6.20;99.90;;;;;;4979662;28;20514;-65
2021/12/02 08:32:58;;;;;;;0.80;0.70;;;6.20;99.90;;;;;;4986407;28;20451;-66
2021/12/02 08:35:26;;;;;;;1.10;1.00;;;6.20;99.90;;;;;;4985832;28;21005;-65
2021/12/02 08:37:57;;;;;;;1.23;1.10;;;6.30;99.90;;;;;;4976723;28;20462;-65
2021/12/02 08:40:30;;;;;;;1.57;1.47;;;6.30;99.90;;;;;;4975293;28;20443;-65
2021/12/02 08:42:57;;;;;;;1.87;1.20;;;6.40;99.90;;;;;;4975721;28;20922;-65
2021/12/02 08:45:25;;;;;;;1.03;1.03;;;6.40;99.90;;;;;;4977345;28;20458;-65
2021/12/02 08:47:52;;;;;;;2.47;1.17;;;6.40;99.90;;;;;;4978945;28;20811;-66
2021/12/02 08:50:21;;;;;;;0.90;0.90;;;6.40;99.90;;;;;;4986874;28;20809;-66
2021/12/02 08:52:50;;;;;;;1.07;1.07;;;6.30;99.90;;;;;;4985291;28;20457;-66
2021/12/02 08:55:18;;;;;;;1.77;0.97;;;6.40;99.90;;;;;;4978794;28;20457;-65
2021/12/02 08:57:45;;;;;;;1.37;1.07;;;6.30;99.90;;;;;;4978195;28;20805;-66
2021/12/02 09:00:15;;;;;;;1.43;0.83;;;6.40;99.90;;;;;;4978279;28;20479;-65
2021/12/02 09:02:44;;;;;;;0.87;0.87;;;6.40;99.90;;;;;;4979015;28;20479;-66
2021/12/02 09:05:10;;;;;;;0.83;0.83;;;6.40;99.90;;;;;;4978626;28;20960;-66
2021/12/02 09:07:37;;;;;;;1.70;1.13;;;6.40;99.90;;;;;;4978397;28;20451;-66
2021/12/02 09:10:06;;;;;;;3.43;1.07;;;6.40;99.90;;;;;;4978336;28;20454;-65
2021/12/02 09:12:33;;;;;;;1.50;1.40;;;6.30;99.90;;;;;;4978509;28;20479;-66
2021/12/02 09:15:00;;;;;;;0.97;0.97;;;6.30;99.90;;;;;;4978292;28;20558;-66
2021/12/02 09:17:26;;;;;;;1.33;1.30;;;6.30;99.90;;;;;;4978264;28;20455;-64
2021/12/02 09:19:54;;;;;;;1.40;1.30;;;6.40;99.90;;;;;;4978486;28;20479;-64
2021/12/02 09:22:21;;;;;;;1.20;1.10;;;6.30;99.90;;;;;;4979515;28;20485;-66
2021/12/02 09:24:48;;;;;;;1.60;1.50;;;6.40;99.90;;;;;;4978663;28;20828;-64
2021/12/02 09:27:15;;;;;;;1.90;1.00;;;6.40;99.90;;;;;;4978972;28;20439;-64
2021/12/02 09:29:42;;;;;;;1.23;1.13;;;6.60;99.90;;;;;;4978850;28;20450;-65
2021/12/02 09:32:09;;;;;;;1.60;1.57;;;6.60;99.90;;;;;;4978440;28;20996;-64
2021/12/02 09:34:35;;;;;;;1.77;1.57;;;6.50;99.90;;;;;;4980089;28;20455;-64
2021/12/02 09:37:04;;;;;;;1.60;1.60;;;6.50;99.90;;;;;;4978787;28;20455;-65
2021/12/02 09:39:32;;;;;;;1.90;1.63;;;6.40;99.90;;;;;;4978860;28;20490;-65
2021/12/02 09:42:00;;;;;;;3.60;1.60;;;6.50;99.90;;;;;;4979091;28;20483;-64
2021/12/02 09:44:27;;;;;;;3.50;1.70;;;6.50;99.90;;;;;;4979314;28;20459;-64
2021/12/02 09:46:54;;;;;;;1.77;1.63;;;6.40;99.90;;;;;;4991885;28;20455;-64
2021/12/02 09:49:22;;;;;;;3.80;1.77;;;6.50;99.90;;;;;;4991474;28;20462;-65
2021/12/02 09:51:59;;;;;;;1.90;1.80;;;6.40;99.90;;;;;;4979073;28;20485;-64
2021/12/02 09:54:31;;;;;;;2.37;2.00;;;6.30;99.90;;;;;;4978424;28;20843;-66
2021/12/02 09:57:01;;;;;;;1.70;1.60;;;6.10;99.90;;;;;;4976602;28;20445;-66
2021/12/02 09:59:31;;;;;;;2.17;2.07;;;5.90;99.90;;;;;;4978637;28;20514;-66
2021/12/02 10:02:02;;;;;;;1.63;1.40;;;5.80;99.90;;;;;;4978440;28;20518;-64
2021/12/02 10:04:30;;;;;;;2.20;1.40;;;5.60;99.90;;;;;;4978193;28;20444;-64
2021/12/02 10:07:14;;;;;;;1.50;1.40;;;5.40;99.90;;;;;;4978759;28;20987;-66
2021/12/02 10:09:54;;;;;;;2.00;1.13;;;5.20;99.90;;;;;;4979069;28;20439;-65
2021/12/02 10:12:23;;;;;;;1.47;1.37;;;5.20;99.90;;;;;;4978386;28;20930;-65
2021/12/02 10:14:51;;;;;;;2.10;1.00;;;5.10;99.90;;;;;;4978192;28;20455;-64
2021/12/02 10:17:23;;;;;;;1.00;1.00;;;4.90;99.90;;;;;;4979815;28;20545;-65
2021/12/02 10:20:18;;;;;;;1.30;1.20;;;4.90;99.90;;;;;;4978281;28;20558;-65
2021/12/02 10:23:06;;;;;;;1.70;1.60;;;4.90;99.90;;;;;;4981494;28;20439;-64
2021/12/02 10:25:36;;;;;;;4.10;1.60;;;4.90;99.90;;;;;;4985132;28;20431;-65
2021/12/02 10:28:05;;;;;;;1.90;1.70;;;5.00;99.90;;;;;;4979486;28;20462;-65
2021/12/02 10:30:32;;;;;;;1.87;1.77;;;5.10;99.90;;;;;;4977413;28;20485;-65
2021/12/02 10:32:59;;;;;;;1.50;1.40;;;5.10;99.90;;;;;;4977111;28;20455;-66
2021/12/02 10:35:38;;;;;;;1.93;1.83;;;5.10;99.90;;;;;;4977750;28;20459;-65
2021/12/02 10:38:05;;;;;;;2.37;2.20;;;5.20;99.90;;;;;;4977359;28;20443;-65
2021/12/02 10:40:36;;;;;;;2.40;2.30;;;5.20;99.90;;;;;;4977168;28;20486;-64
2021/12/02 10:43:07;;;;;;;5.23;2.40;;;5.20;99.90;;;;;;4977090;28;20443;-65
2021/12/02 10:45:35;;;;;;;2.00;1.90;;;5.30;99.90;;;;;;4977278;28;20444;-65
2021/12/02 10:48:01;;;;;;;2.20;2.10;;;5.30;99.90;;;;;;4977377;28;20459;-65
2021/12/02 10:50:36;;;;;;;2.43;1.83;;;5.40;99.90;;;;;;4977557;28;20453;-65
2021/12/02 10:53:05;;;;;;;3.47;2.20;;;5.50;99.90;;;;;;4976953;28;20809;-65
2021/12/02 10:55:33;;;;;;;2.30;2.20;;;5.60;99.90;;;;;;4977080;28;20466;-66
2021/12/02 10:58:03;;;;;;;2.37;2.17;;;5.70;99.90;;;;;;4976766;28;20555;-66
2021/12/02 11:00:33;;;;;;;2.80;2.60;;;5.70;99.90;;;;;;4976587;28;20479;-66
2021/12/02 11:03:07;;;;;;;2.87;1.90;;;5.70;99.90;;;;;;4976863;28;20860;-66
2021/12/02 11:05:35;;;;;;;1.97;1.87;;;5.60;99.90;;;;;;4976741;28;20450;-66
2021/12/02 11:08:05;;;;;;;2.17;2.07;;;5.60;99.90;;;;;;4979623;28;20483;-66
2021/12/02 11:10:34;;;;;;;1.60;1.50;;;5.60;99.90;;;;;;4995685;28;20442;-66
2021/12/02 11:13:03;;;;;;;2.17;1.73;;;5.50;99.90;;;;;;4979087;28;20455;-66
2021/12/02 11:15:32;;;;;;;1.97;1.50;;;5.50;99.90;;;;;;4979829;28;20458;-65
2021/12/02 11:18:02;;;;;;;1.23;1.23;;;5.40;99.90;;;;;;4978915;28;20455;-65
2021/12/02 11:20:31;;;;;;;2.27;1.60;;;5.20;99.90;;;;;;4994624;28;20445;-66
2021/12/02 11:23:01;;;;;;;1.93;1.83;;;5.10;99.90;;;;;;4998047;28;20447;-65
2021/12/02 11:25:28;;;;;;;1.80;1.70;;;5.10;99.90;;;;;;4998169;28;20486;-65
2021/12/02 11:27:56;;;;;;;1.93;1.73;;;5.40;99.90;;;;;;4997637;28;20447;-65
2021/12/02 11:30:27;;;;;;;1.43;1.27;;;5.50;99.90;;;;;;4997073;28;20445;-65
2021/12/02 11:32:57;;;;;;;1.40;1.40;;;5.90;99.90;;;;;;4996593;28;20419;-65
2021/12/02 11:35:31;;;;;;;2.10;1.23;;;6.20;99.90;;;;;;4997747;28;20485;-65
2021/12/02 11:38:03;;;;;;;1.83;1.73;;;6.40;99.90;;;;;;4996840;28;20446;-64
2021/12/02 11:40:31;;;;;;;2.93;2.60;;;6.40;99.90;;;;;;4997623;28;20454;-65
2021/12/02 11:42:58;;;;;;;1.30;1.20;;;6.60;99.90;;;;;;4997602;28;20475;-65
2021/12/02 11:45:29;;;;;;;1.80;1.70;;;6.60;99.90;;;;;;4997835;28;20511;-65
2021/12/02 11:47:56;;;;;;;1.73;1.60;;;6.40;99.90;;;;;;4997125;28;20430;-65
2021/12/02 11:50:25;;;;;;;1.57;1.47;;;6.30;99.90;;;;;;4996699;28;20450;-66
2021/12/02 11:52:52;;;;;;;1.63;1.60;;;6.30;99.90;;;;;;4985313;28;20889;-66
2021/12/02 11:55:23;;;;;;;1.57;1.43;;;6.20;99.90;;;;;;4981279;28;20462;-64
2021/12/02 11:57:51;;;;;;;1.50;1.40;;;6.20;99.90;;;;;;4981989;28;20439;-65
2021/12/02 12:00:20;;;;;;;2.20;1.33;;;6.00;99.90;;;;;;4986344;28;20482;-66
2021/12/02 12:02:53;;;;;;;1.00;1.00;;;5.80;99.90;;;;;;4984128;28;20435;-66
2021/12/02 12:05:25;;;;;;;1.30;1.30;;;5.70;99.90;;;;;;4981502;28;20451;-65
2021/12/02 12:07:52;;;;;;;1.60;1.50;;;5.70;99.90;;;;;;4977072;28;20435;-65
2021/12/02 12:10:25;;;;;;;1.60;1.50;;;5.50;99.90;;;;;;4976021;28;20970;-65
2021/12/02 12:12:53;;;;;;;1.30;1.20;;;5.40;99.90;;;;;;4976365;28;20431;-65
2021/12/02 12:15:39;;;;;;;0.87;0.87;;;5.40;99.90;;;;;;4977150;28;20460;-66
2021/12/02 12:18:09;;;;;;;1.93;1.00;;;5.30;99.90;;;;;;4976614;28;20435;-66
2021/12/02 12:20:57;;;;;;;3.90;1.10;;;5.30;99.90;;;;;;4978702;28;20490;-66
2021/12/02 12:23:29;;;;;;;1.10;1.10;;;5.30;99.90;;;;;;4980306;28;20466;-66
2021/12/02 12:26:09;;;;;;;1.47;1.47;;;5.20;99.90;;;;;;4980170;28;20444;-66
2021/12/02 12:29:27;;;;;;;2.00;1.20;;;5.10;99.90;;;;;;4980330;28;21012;-65
2021/12/02 12:32:25;;;;;;;1.60;1.60;;;5.10;99.90;;;;;;4980316;28;20510;-66
2021/12/02 12:34:57;;;;;;;1.70;1.60;;;5.00;99.90;;;;;;4979793;28;20443;-66
2021/12/02 12:37:48;;;;;;;1.73;1.63;;;4.90;99.90;;;;;;4991637;28;20443;-66
2021/12/02 12:40:19;;;;;;;2.13;1.40;;;5.00;99.90;;;;;;5000732;28;20463;-66
2021/12/02 12:42:48;;;;;;;1.23;1.23;;;5.10;99.90;;;;;;5000354;28;20427;-67
2021/12/02 12:45:25;;;;;;;2.77;1.43;;;5.10;99.90;;;;;;4996186;28;20455;-66
2021/12/02 12:47:56;;;;;;;2.70;1.93;;;5.10;99.90;;;;;;5000865;28;20431;-66
2021/12/02 12:50:34;;;;;;;1.40;1.40;;;5.20;99.90;;;;;;5001229;28;20435;-66
2021/12/02 12:53:22;;;;;;;1.57;1.30;;;5.30;99.90;;;;;;5000268;28;20423;-66
2021/12/02 12:56:08;;;;;;;1.27;1.17;;;5.30;99.90;;;;;;4998941;28;20446;-65
2021/12/02 12:58:37;;;;;;;1.90;1.57;;;5.40;99.90;;;;;;5001976;28;20435;-66
2021/12/02 13:01:06;;;;;;;2.40;2.20;;;5.40;99.90;;;;;;4989319;28;21008;-67
2021/12/02 13:03:40;;;;;;;2.30;2.00;;;5.40;99.90;;;;;;4980274;28;20459;-66
2021/12/02 13:06:10;;;;;;;1.40;1.40;;;5.50;99.90;;;;;;4997292;28;20520;-65
2021/12/02 13:08:47;;;;;;;5.03;2.10;;;5.60;99.90;;;;;;5000570;28;20454;-66
2021/12/02 13:11:16;;;;;;;1.90;1.80;;;5.60;99.90;;;;;;5000670;28;20462;-67
2021/12/02 13:13:45;;;;;;;3.53;2.80;;;5.70;99.90;;;;;;4991784;28;20538;-67
2021/12/02 13:16:34;;;;;;;3.00;2.60;;;5.80;99.90;;;;;;4992086;28;20511;-68
2021/12/02 13:19:12;;;;;;;2.40;2.30;;;5.90;99.90;;;;;;4984112;28;20439;-68
2021/12/02 13:21:39;;;;;;;3.90;2.50;;;5.90;99.90;;;;;;4981750;28;20514;-68
2021/12/02 13:24:07;;;;;;;2.80;2.50;;;5.90;99.90;;;;;;4981122;28;20550;-68
2021/12/02 13:26:37;;;;;;;3.57;2.80;;;6.00;99.90;;;;;;4980012;28;20954;-68
2021/12/02 13:29:11;;;;;;;2.80;2.60;;;6.00;99.90;;;;;;4989318;28;20459;-67
2021/12/02 13:31:40;;;;;;;3.20;2.90;;;5.90;99.90;;;;;;4991656;28;20471;-67
2021/12/02 13:34:10;;;;;;;2.23;1.70;;;5.80;99.90;;;;;;4980264;28;20462;-67
2021/12/02 13:36:41;;;;;;;2.10;1.90;;;5.70;99.90;;;;;;4978163;28;20829;-67
2021/12/02 13:39:12;;;;;;;1.50;1.43;;;5.60;99.90;;;;;;4978711;28;20439;-67
2021/12/02 13:41:42;;;;;;;2.20;1.80;;;5.60;99.90;;;;;;4978730;28;20862;-66
2021/12/02 13:44:12;;;;;;;3.30;2.30;;;5.60;99.90;;;;;;4978678;28;20440;-67
2021/12/02 13:46:42;;;;;;;5.40;2.27;;;5.60;99.90;;;;;;4978979;28;20450;-68
2021/12/02 13:49:15;;;;;;;2.47;2.37;;;5.50;99.90;;;;;;4978802;28;20466;-67
2021/12/02 13:54:31;;;;;;;3.03;2.50;;;5.40;99.90;;;;;;4978103;28;20419;-67
2021/12/02 13:57:00;;;;;;;3.30;2.53;;;5.40;99.90;;;;;;4977692;28;21013;-67
2021/12/02 13:59:38;;;;;;;2.40;2.20;;;5.40;99.90;;;;;;4977885;28;20514;-67
2021/12/02 14:02:05;;;;;;;1.87;1.67;;;5.50;99.90;;;;;;4978299;28;20490;-67
2021/12/02 14:04:44;;;;;;;2.37;1.80;;;5.50;99.90;;;;;;4979344;28;20459;-67
2021/12/02 14:07:17;;;;;;;2.10;2.00;;;5.50;99.90;;;;;;4979709;28;20518;-67
2021/12/02 14:09:49;;;;;;;1.90;1.80;;;5.40;99.90;;;;;;4978698;28;20862;-66
2021/12/02 14:12:17;;;;;;;5.00;2.13;;;5.30;99.90;;;;;;4978402;28;20567;-67
2021/12/02 14:15:02;;;;;;;2.80;2.00;;;5.20;99.90;;;;;;4978721;28;20459;-66
2021/12/02 14:17:32;;;;;;;1.70;1.60;;;5.20;99.90;;;;;;4978858;28;20443;-68
2021/12/02 14:20:05;;;;;;;1.63;1.53;;;5.10;99.90;;;;;;4979206;28;20444;-67
2021/12/02 14:22:34;;;;;;;2.23;2.10;;;5.00;99.90;;;;;;4978394;28;20562;-66
2021/12/02 14:25:02;;;;;;;2.17;1.97;;;4.90;99.90;;;;;;4977407;28;20957;-67
2021/12/02 14:27:28;;;;;;;2.10;2.00;;;4.90;99.90;;;;;;4977166;28;20459;-67
2021/12/02 14:30:17;;;;;;;10.90;2.60;;;4.90;99.90;;;;;;4976971;28;20439;-67
2021/12/02 14:32:45;;;;;;;6.03;2.23;;;4.90;99.90;;;;;;4976702;28;20451;-66
2021/12/02 14:35:17;;;;;;;3.70;2.60;;;5.00;99.90;;;;;;4977266;28;20443;-68
2021/12/02 14:37:45;;;;;;;3.20;2.33;;;5.00;99.90;;;;;;4992189;28;20442;-67
2021/12/02 14:40:34;;;;;;;3.03;2.00;;;5.00;99.90;;;;;;4982175;28;20480;-67
2021/12/02 14:43:15;;;;;;;2.20;2.00;;;5.00;99.90;;;;;;4976904;28;20799;-68
2021/12/02 14:45:42;;;;;;;2.37;2.23;;;5.00;99.90;;;;;;4976903;28;20451;-67
2021/12/02 14:48:23;;;;;;;2.10;2.00;;;5.00;99.90;;;;;;4977113;28;20459;-67
2021/12/02 14:51:02;;;;;;;3.37;1.93;;;5.10;99.90;;;;;;4976787;28;20836;-67
2021/12/02 14:53:31;;;;;;;2.03;1.93;;;5.20;99.90;;;;;;4977281;28;20455;-66
2021/12/02 14:56:04;;;;;;;2.97;2.10;;;5.50;99.90;;;;;;4976811;28;20436;-68
2021/12/02 14:58:33;;;;;;;3.13;2.00;;;5.70;99.90;;;;;;4976758;28;20455;-68
2021/12/02 15:01:14;;;;;;;2.93;2.63;;;5.80;99.90;;;;;;4979808;28;20489;-67
2021/12/02 15:03:43;;;;;;;2.70;2.50;;;5.90;99.90;;;;;;4993594;28;20451;-67
2021/12/02 15:06:10;;;;;;;2.57;2.47;;;5.80;99.90;;;;;;4979293;28;20459;-67
2021/12/02 15:08:37;;;;;;;3.37;3.00;;;5.80;99.90;;;;;;4977346;28;20482;-66
2021/12/02 15:11:03;;;;;;;3.23;3.03;;;5.70;99.90;;;;;;4980091;28;20471;-68
2021/12/02 15:13:43;;;;;;;6.03;3.77;;;5.40;99.90;;;;;;4993067;28;20527;-65
2021/12/02 15:16:10;;;;;;;3.10;2.90;;;5.40;99.90;;;;;;4985952;28;20529;-66
2021/12/02 15:18:37;;;;;;;2.07;1.97;;;5.00;99.90;;;;;;4979447;28;20539;-65
2021/12/02 15:21:04;;;;;;;1.63;1.53;;;4.60;99.90;;;;;;4982635;28;20881;-66
2021/12/02 15:23:33;;;;;;;2.43;2.03;;;4.40;99.90;;;;;;4982321;28;20490;-67
2021/12/02 15:26:05;;;;;;;1.83;1.73;;;4.20;99.90;;;;;;4978650;28;20507;-66
2021/12/02 15:28:33;;;;;;;2.03;1.93;;;3.90;99.90;;;;;;4977456;28;20907;-67
2021/12/02 15:31:04;;;;;;;1.87;1.67;;;3.80;99.90;;;;;;4977917;28;20471;-67
2021/12/02 15:33:33;;;;;;;2.00;1.87;;;3.50;99.90;;;;;;4978033;28;20823;-67
2021/12/02 15:36:04;;;;;;;1.83;1.70;;;3.50;99.90;;;;;;4978563;28;20467;-67
2021/12/02 15:38:31;;;;;;;2.10;1.90;;;3.40;99.90;;;;;;4978861;28;20443;-67
2021/12/02 15:41:00;;;;;;;2.27;1.93;;;3.40;99.90;;;;;;4977910;28;20490;-68
2021/12/02 15:43:31;;;;;;;1.20;1.17;;;3.40;99.90;;;;;;4979124;28;20465;-67
2021/12/02 15:45:59;;;;;;;2.10;1.13;;;3.30;99.90;;;;;;4979440;28;20439;-68
2021/12/02 15:48:28;;;;;;;6.87;1.40;;;3.30;99.90;;;;;;4978387;28;20455;-67
2021/12/02 15:50:56;;;;;;;3.23;1.43;;;3.30;99.90;;;;;;4977470;28;20478;-66
2021/12/02 15:53:24;;;;;;;1.93;1.83;;;3.40;99.90;;;;;;4977459;28;20490;-67
2021/12/02 15:55:53;;;;;;;3.20;3.00;;;3.40;99.90;;;;;;4976920;28;20455;-67
2021/12/02 15:58:20;;;;;;;2.90;2.67;;;3.40;99.90;;;;;;4977408;28;20455;-67
2021/12/02 16:00:51;;;;;;;4.90;2.93;;;3.40;99.90;;;;;;4978407;28;20513;-67
2021/12/02 16:03:22;;;;;;;2.60;2.50;;;3.50;99.90;;;;;;4978862;28;20531;-67
2021/12/02 16:06:05;;;;;;;3.10;2.80;;;3.50;99.90;;;;;;4977581;28;20462;-68
2021/12/02 16:08:37;;;;;;;3.07;2.83;;;3.50;99.90;;;;;;4980114;28;20448;-67
2021/12/02 16:11:14;;;;;;;2.93;2.73;;;3.50;99.90;;;;;;4978857;28;20471;-67
2021/12/02 16:13:42;;;;;;;2.30;2.00;;;3.40;99.90;;;;;;4977177;28;20475;-67
2021/12/02 16:16:09;;;;;;;2.67;2.37;;;3.40;99.90;;;;;;4977307;28;20447;-67
2021/12/02 16:18:36;;;;;;;3.07;2.70;;;3.40;99.90;;;;;;4977460;28;20447;-67
2021/12/02 16:21:07;;;;;;;2.50;2.40;;;3.50;99.90;;;;;;4978140;28;20518;-68
2021/12/02 16:23:34;;;;;;;3.07;2.97;;;3.50;99.90;;;;;;4979516;28;20447;-67
2021/12/02 16:26:01;;;;;;;3.43;3.13;;;3.50;99.90;;;;;;4977786;28;20459;-68
2021/12/02 16:28:28;;;;;;;2.60;2.33;;;3.50;99.90;;;;;;4976600;28;20467;-67
2021/12/02 16:30:55;;;;;;;2.93;2.70;;;3.50;99.90;;;;;;4976997;28;20471;-68
2021/12/02 16:33:23;;;;;;;3.93;3.10;;;3.50;99.90;;;;;;4978423;28;20466;-67
2021/12/02 16:35:51;;;;;;;4.23;3.60;;;3.60;99.90;;;;;;4991574;28;20455;-68
2021/12/02 16:38:19;;;;;;;4.00;3.70;;;3.60;99.90;;;;;;4985087;28;20831;-67
2021/12/02 16:40:47;;;;;;;3.67;3.37;;;3.60;99.90;;;;;;4977198;28;21098;-67
2021/12/02 16:43:17;;;;;;;4.20;3.80;;;3.60;99.90;;;;;;4977151;28;20466;-67
2021/12/02 16:45:45;;;;;;;3.60;3.30;;;3.70;99.90;;;;;;4977997;28;20812;-67
2021/12/02 16:48:13;;;;;;;4.50;4.20;;;3.70;99.90;;;;;;4978538;28;20455;-68
2021/12/02 16:50:42;;;;;;;3.67;3.47;;;3.70;99.90;;;;;;4984225;28;20497;-68
2021/12/02 16:53:10;;;;;;;4.00;3.70;;;3.80;99.90;;;;;;4979567;28;20985;-67
2021/12/02 16:55:38;;;;;;;4.40;4.10;;;3.80;99.90;;;;;;4981538;28;20455;-67
2021/12/02 16:58:07;;;;;;;4.30;3.90;;;3.80;99.90;;;;;;4982095;28;20461;-67
2021/12/02 17:00:36;;;;;;;4.47;4.07;;;3.90;99.90;;;;;;4981502;28;20981;-67
2021/12/02 17:03:04;;;;;;;4.63;4.20;;;3.90;99.90;;;;;;4979007;28;20463;-67
2021/12/02 17:05:33;;;;;;;6.43;4.80;;;3.90;99.90;;;;;;4979082;28;20465;-67
2021/12/02 17:08:00;;;;;;;7.13;6.43;;;3.80;99.90;;;;;;4982608;28;20447;-67
2021/12/02 17:10:27;;;;;;;5.57;5.00;;;3.90;99.90;;;;;;4981541;28;20459;-67
2021/12/02 17:12:58;;;;;;;9.97;7.57;;;3.80;99.90;;;;;;4982934;28;20447;-67
2021/12/02 17:15:25;;;;;;;6.10;5.50;;;3.90;99.90;;;;;;4981791;28;20475;-66
2021/12/02 17:17:53;;;;;;;11.73;8.37;;;3.90;99.90;;;;;;4980109;28;20459;-67
2021/12/02 17:20:24;;;;;;;14.70;9.80;;;3.80;99.90;;;;;;4981073;28;20459;-66
2021/12/02 17:22:51;;;;;;;14.80;10.60;;;4.00;99.90;;;;;;4983292;28;20474;-67
2021/12/02 17:25:18;;;;;;;14.93;11.40;;;4.00;99.90;;;;;;4981398;28;20466;-67
2021/12/02 17:27:45;;;;;;;14.10;10.10;;;4.00;99.90;;;;;;4981697;28;20947;-67
2021/12/02 17:30:15;;;;;;;6.23;5.63;;;4.00;99.90;;;;;;4981432;28;20458;-67
2021/12/02 17:32:42;;;;;;;5.63;5.13;;;4.00;99.90;;;;;;4981519;28;20442;-67
2021/12/02 17:35:13;;;;;;;5.47;4.97;;;3.90;99.90;;;;;;4981029;28;20950;-67
2021/12/02 17:37:41;;;;;;;6.23;5.40;;;3.90;99.90;;;;;;4981523;28;20486;-67
2021/12/02 17:40:11;;;;;;;5.60;5.10;;;3.80;99.90;;;;;;4980447;28;20782;-67
2021/12/02 17:42:38;;;;;;;6.20;5.70;;;3.80;99.90;;;;;;4979891;28;20994;-67
2021/12/02 17:45:06;;;;;;;7.00;6.30;;;3.80;99.90;;;;;;4980066;28;20460;-67
2021/12/02 17:47:35;;;;;;;6.80;6.10;;;3.80;99.90;;;;;;4980780;28;20459;-67
2021/12/02 17:50:06;;;;;;;6.67;6.07;;;3.80;99.90;;;;;;4979984;28;20455;-67
2021/12/02 17:52:33;;;;;;;6.03;5.53;;;3.80;99.90;;;;;;4980168;28;20471;-67
2021/12/02 17:55:00;;;;;;;7.53;5.20;;;3.70;99.90;;;;;;4980245;28;20482;-67
2021/12/02 17:57:26;;;;;;;7.33;5.73;;;3.70;99.90;;;;;;4980104;28;20455;-67
2021/12/02 17:59:53;;;;;;;5.93;5.43;;;3.60;99.90;;;;;;4980751;28;20938;-67
2021/12/02 18:02:20;;;;;;;6.07;5.57;;;3.60;99.90;;;;;;4978485;28;20486;-68
2021/12/02 18:04:48;;;;;;;6.23;5.63;;;3.60;99.90;;;;;;4979112;28;20466;-68
2021/12/02 18:07:15;;;;;;;5.47;4.97;;;3.60;99.90;;;;;;4984024;28;20455;-68
2021/12/02 18:09:42;;;;;;;6.70;5.53;;;3.60;99.90;;;;;;4992067;28;20451;-69
2021/12/02 18:12:09;;;;;;;8.57;5.83;;;3.60;99.90;;;;;;4983683;28;20545;-68
2021/12/02 18:14:36;;;;;;;6.17;5.53;;;3.60;99.90;;;;;;4978471;28;20946;-68